Time;durP1;ratioP1;P1;durP2;ratioP2;P2;SDS_P1;SDS_P2;PMS_P1;PMS_P2;Temp;Humidity;BMP_temperature;BMP_pressure;BME280_temperature;BME280_humidity;BME280_pressure;Samples;Min_cycle;Max_cycle;Signal;HPM_P1;HPM_P2
2021/10/19 00:01:04;;;;;;;32.15;12.63;;;;;;;;;;4983155;28;20293;-80
2021/10/19 00:03:31;;;;;;;23.92;12.88;;;;;;;;;;4983923;28;20302;-80
2021/10/19 00:05:59;;;;;;;26.98;13.07;;;;;;;;;;4973101;28;20289;-80
2021/10/19 00:08:27;;;;;;;25.98;12.57;;;;;;;;;;4975182;28;20290;-81
2021/10/19 00:10:55;;;;;;;27.23;12.95;;;;;;;;;;4978387;28;20777;-80
2021/10/19 00:13:23;;;;;;;27.90;13.23;;;;;;;;;;4986716;28;20233;-80
2021/10/19 00:15:53;;;;;;;27.33;12.80;;;;;;;;;;4975420;28;20209;-81
2021/10/19 00:18:21;;;;;;;28.50;12.70;;;;;;;;;;4987297;28;20285;-80
2021/10/19 00:20:49;;;;;;;22.05;12.77;;;;;;;;;;4974458;28;20226;-80
2021/10/19 00:23:19;;;;;;;27.65;12.95;;;;;;;;;;4985436;28;20285;-80
2021/10/19 00:25:47;;;;;;;24.75;12.40;;;;;;;;;;4983464;28;20217;-80
2021/10/19 00:28:15;;;;;;;28.25;13.75;;;;;;;;;;4989982;28;20280;-80
2021/10/19 00:30:44;;;;;;;24.48;12.15;;;;;;;;;;4984746;28;20258;-80
2021/10/19 00:33:13;;;;;;;23.70;13.05;;;;;;;;;;4984121;28;20316;-80
2021/10/19 00:35:42;;;;;;;23.45;12.68;;;;;;;;;;4979181;28;20198;-80
2021/10/19 00:38:10;;;;;;;25.05;12.43;;;;;;;;;;4983144;28;20238;-80
2021/10/19 00:40:38;;;;;;;26.65;13.13;;;;;;;;;;4980435;28;20282;-80
2021/10/19 00:43:07;;;;;;;28.02;12.60;;;;;;;;;;4989344;28;20744;-80
2021/10/19 00:45:35;;;;;;;30.02;12.60;;;;;;;;;;4978698;28;20285;-80
2021/10/19 00:48:05;;;;;;;24.60;12.57;;;;;;;;;;4987610;28;20201;-80
2021/10/19 00:50:35;;;;;;;33.17;13.13;;;;;;;;;;4992069;28;20329;-80
2021/10/19 00:53:04;;;;;;;28.13;12.95;;;;;;;;;;4974781;28;20198;-80
2021/10/19 00:55:33;;;;;;;27.63;14.02;;;;;;;;;;4977241;28;20284;-80
2021/10/19 00:58:02;;;;;;;21.55;12.02;;;;;;;;;;4983429;28;20237;-80
2021/10/19 01:00:32;;;;;;;21.48;12.82;;;;;;;;;;4985059;28;20280;-80
2021/10/19 01:03:01;;;;;;;25.63;12.63;;;;;;;;;;4975721;28;20337;-80
2021/10/19 01:05:31;;;;;;;25.88;12.20;;;;;;;;;;4988724;28;20228;-80
2021/10/19 01:08:02;;;;;;;24.63;12.13;;;;;;;;;;4984860;28;20202;-80
2021/10/19 01:10:33;;;;;;;22.35;12.25;;;;;;;;;;4985374;28;20268;-80
2021/10/19 01:13:03;;;;;;;23.73;12.40;;;;;;;;;;4975762;28;20285;-80
2021/10/19 01:15:35;;;;;;;20.10;11.93;;;;;;;;;;4972089;28;20388;-80
2021/10/19 01:18:05;;;;;;;22.20;11.93;;;;;;;;;;4976302;28;20281;-80
2021/10/19 01:20:38;;;;;;;23.63;11.70;;;;;;;;;;4986723;28;20285;-80
2021/10/19 01:23:10;;;;;;;20.17;10.75;;;;;;;;;;4984648;28;20288;-81
2021/10/19 01:25:42;;;;;;;21.08;10.95;;;;;;;;;;4991416;28;20616;-80
2021/10/19 01:28:16;;;;;;;18.00;10.90;;;;;;;;;;4990940;28;20296;-80
2021/10/19 01:30:49;;;;;;;19.08;10.27;;;;;;;;;;4980720;28;20317;-80
2021/10/19 01:33:21;;;;;;;15.70;10.13;;;;;;;;;;4988530;28;20287;-80
2021/10/19 01:35:55;;;;;;;17.08;10.32;;;;;;;;;;4979723;28;20294;-80
2021/10/19 01:38:29;;;;;;;20.75;10.90;;;;;;;;;;4980629;28;20643;-80
2021/10/19 01:41:02;;;;;;;19.33;10.70;;;;;;;;;;4982941;28;20230;-80
2021/10/19 01:43:35;;;;;;;15.00;10.10;;;;;;;;;;4982545;28;20293;-80
2021/10/19 01:46:09;;;;;;;15.27;10.32;;;;;;;;;;4981895;28;20226;-80
2021/10/19 01:48:42;;;;;;;19.35;10.27;;;;;;;;;;4973551;28;20226;-80
2021/10/19 01:51:16;;;;;;;20.60;10.85;;;;;;;;;;4978332;28;20226;-80
2021/10/19 01:53:51;;;;;;;18.23;11.05;;;;;;;;;;4979426;28;20233;-80
2021/10/19 01:56:25;;;;;;;15.48;9.93;;;;;;;;;;4976225;28;20288;-80
2021/10/19 01:59:00;;;;;;;16.48;10.93;;;;;;;;;;4988551;28;20590;-80
2021/10/19 02:01:34;;;;;;;20.15;10.43;;;;;;;;;;4990140;28;20669;-80
2021/10/19 02:04:09;;;;;;;19.05;10.98;;;;;;;;;;4990863;28;20207;-80
2021/10/19 02:06:45;;;;;;;15.68;11.38;;;;;;;;;;4989571;28;20205;-80
2021/10/19 02:09:19;;;;;;;20.20;11.32;;;;;;;;;;4974153;28;20201;-80
2021/10/19 02:11:55;;;;;;;19.20;11.43;;;;;;;;;;4980380;28;20308;-80
2021/10/19 02:14:30;;;;;;;17.85;11.32;;;;;;;;;;4987512;28;20206;-80
2021/10/19 02:17:04;;;;;;;21.00;12.25;;;;;;;;;;4986836;28;20707;-80
2021/10/19 02:19:39;;;;;;;22.08;13.02;;;;;;;;;;4971280;28;20230;-80
2021/10/19 02:22:15;;;;;;;20.58;12.65;;;;;;;;;;4971496;28;20310;-80
2021/10/19 02:24:50;;;;;;;23.77;12.63;;;;;;;;;;4970104;28;20678;-80
2021/10/19 02:27:24;;;;;;;19.65;12.68;;;;;;;;;;4987201;28;20299;-80
2021/10/19 02:29:59;;;;;;;21.92;12.88;;;;;;;;;;4990264;28;20197;-80
2021/10/19 02:32:34;;;;;;;21.27;12.75;;;;;;;;;;4990050;28;20240;-80
2021/10/19 02:35:11;;;;;;;22.45;13.65;;;;;;;;;;4988557;28;20312;-80
2021/10/19 02:37:44;;;;;;;24.88;13.50;;;;;;;;;;4989721;28;20309;-80
2021/10/19 02:40:26;;;;;;;21.77;14.25;;;;;;;;;;4974887;28;20290;-80
2021/10/19 02:42:59;;;;;;;23.55;13.77;;;;;;;;;;4971878;28;20195;-80
2021/10/19 02:45:35;;;;;;;20.90;13.80;;;;;;;;;;4975552;28;20226;-81
2021/10/19 02:48:07;;;;;;;21.98;13.85;;;;;;;;;;4982994;28;20285;-80
2021/10/19 02:50:35;;;;;;;21.10;13.77;;;;;;;;;;4984973;28;20237;-80
2021/10/19 02:53:03;;;;;;;21.35;13.13;;;;;;;;;;4974648;28;20642;-80
2021/10/19 02:55:30;;;;;;;19.70;13.88;;;;;;;;;;4983715;28;20308;-80
2021/10/19 02:57:57;;;;;;;19.95;12.98;;;;;;;;;;4973671;28;20290;-80
2021/10/19 03:00:25;;;;;;;21.55;13.68;;;;;;;;;;4971074;28;20289;-80
2021/10/19 03:02:52;;;;;;;22.48;13.50;;;;;;;;;;4971270;28;20313;-81
2021/10/19 03:05:19;;;;;;;20.02;13.38;;;;;;;;;;4970728;28;20241;-80
2021/10/19 03:07:46;;;;;;;23.50;13.48;;;;;;;;;;4970693;28;20741;-81
2021/10/19 03:10:15;;;;;;;22.00;13.45;;;;;;;;;;4979182;28;20238;-80
2021/10/19 03:12:42;;;;;;;23.85;13.70;;;;;;;;;;4970967;28;20242;-80
2021/10/19 03:15:09;;;;;;;20.77;13.80;;;;;;;;;;4970861;28;20218;-80
2021/10/19 03:17:37;;;;;;;22.38;14.35;;;;;;;;;;4971084;28;20241;-80
2021/10/19 03:20:05;;;;;;;22.45;14.05;;;;;;;;;;4971118;28;20383;-80
2021/10/19 03:22:33;;;;;;;23.83;13.35;;;;;;;;;;4975067;28;20206;-80
2021/10/19 03:25:00;;;;;;;24.17;14.05;;;;;;;;;;4990190;28;20290;-80
2021/10/19 03:27:29;;;;;;;23.65;13.80;;;;;;;;;;4981089;28;20233;-79
2021/10/19 03:29:56;;;;;;;22.38;14.20;;;;;;;;;;4970528;28;20241;-80
2021/10/19 03:32:23;;;;;;;22.95;13.82;;;;;;;;;;4970297;28;20294;-80
2021/10/19 03:34:50;;;;;;;22.05;13.60;;;;;;;;;;4970182;28;20329;-80
2021/10/19 03:37:17;;;;;;;22.95;14.05;;;;;;;;;;4971759;28;20290;-80
2021/10/19 03:39:44;;;;;;;22.65;13.75;;;;;;;;;;4973649;28;20285;-80
2021/10/19 03:42:12;;;;;;;22.33;14.00;;;;;;;;;;4973987;28;20292;-80
2021/10/19 03:44:40;;;;;;;22.55;15.00;;;;;;;;;;4973867;28;20721;-80
2021/10/19 03:47:08;;;;;;;22.75;14.57;;;;;;;;;;4974167;28;20245;-80
2021/10/19 03:49:35;;;;;;;23.38;14.63;;;;;;;;;;4991131;28;20244;-80
2021/10/19 03:52:02;;;;;;;19.40;13.70;;;;;;;;;;4993253;28;20260;-80
2021/10/19 03:54:29;;;;;;;21.55;14.52;;;;;;;;;;4993376;28;20228;-80
2021/10/19 03:56:56;;;;;;;22.08;14.57;;;;;;;;;;4993380;28;20288;-80
2021/10/19 03:59:24;;;;;;;21.95;14.30;;;;;;;;;;4993387;28;20288;-80
2021/10/19 04:01:52;;;;;;;23.33;14.10;;;;;;;;;;4993127;28;20224;-80
2021/10/19 04:04:20;;;;;;;22.05;14.82;;;;;;;;;;4992639;28;20663;-80
2021/10/19 04:06:47;;;;;;;22.45;15.05;;;;;;;;;;4992971;28;20552;-80
2021/10/19 04:09:14;;;;;;;22.75;14.70;;;;;;;;;;4992628;28;20293;-80
2021/10/19 04:11:42;;;;;;;21.92;13.95;;;;;;;;;;4991473;28;20652;-80
2021/10/19 04:14:09;;;;;;;23.02;14.68;;;;;;;;;;4993245;28;20253;-80
2021/10/19 04:16:37;;;;;;;22.27;13.98;;;;;;;;;;4992809;28;20285;-80
2021/10/19 04:19:06;;;;;;;21.40;14.27;;;;;;;;;;4992687;28;20256;-80
2021/10/19 04:21:33;;;;;;;21.88;13.52;;;;;;;;;;4992744;28;20206;-80
2021/10/19 04:24:00;;;;;;;19.58;14.23;;;;;;;;;;4983881;28;20281;-80
2021/10/19 04:26:27;;;;;;;23.40;13.70;;;;;;;;;;4991859;28;20288;-80
2021/10/19 04:28:54;;;;;;;20.15;13.73;;;;;;;;;;4992467;28;20643;-80
2021/10/19 04:31:22;;;;;;;19.98;13.30;;;;;;;;;;4991386;28;20233;-80
2021/10/19 04:33:49;;;;;;;21.88;13.50;;;;;;;;;;4972588;28;20330;-80
2021/10/19 04:36:17;;;;;;;19.52;14.30;;;;;;;;;;4973386;28;20297;-80
2021/10/19 04:38:44;;;;;;;19.90;13.63;;;;;;;;;;4982776;28;20234;-79
2021/10/19 04:41:12;;;;;;;25.05;14.77;;;;;;;;;;4992411;28;20501;-79
2021/10/19 04:43:39;;;;;;;23.10;15.20;;;;;;;;;;4992038;28;20233;-80
2021/10/19 04:46:06;;;;;;;24.83;14.43;;;;;;;;;;4992028;28;20334;-80
2021/10/19 04:48:33;;;;;;;25.15;15.82;;;;;;;;;;4984971;28;20634;-81
2021/10/19 04:51:00;;;;;;;23.80;15.43;;;;;;;;;;4973535;28;20290;-80
2021/10/19 04:53:30;;;;;;;22.33;14.27;;;;;;;;;;4987944;28;20303;-80
2021/10/19 04:55:57;;;;;;;22.13;14.85;;;;;;;;;;4991515;28;20228;-80
2021/10/19 04:58:25;;;;;;;27.05;15.02;;;;;;;;;;4990428;28;20293;-82
2021/10/19 05:00:52;;;;;;;20.23;13.98;;;;;;;;;;4992900;28;20226;-82
2021/10/19 05:03:20;;;;;;;19.08;14.63;;;;;;;;;;4992167;28;20312;-82
2021/10/19 05:05:47;;;;;;;25.20;14.93;;;;;;;;;;4993806;28;20197;-83
2021/10/19 05:08:14;;;;;;;21.88;14.63;;;;;;;;;;4988973;28;20650;-81
2021/10/19 05:10:43;;;;;;;23.88;15.65;;;;;;;;;;4991346;28;20293;-81
2021/10/19 05:13:11;;;;;;;22.40;15.15;;;;;;;;;;4979349;28;20216;-82
2021/10/19 05:15:38;;;;;;;25.05;15.60;;;;;;;;;;4992671;28;20321;-83
2021/10/19 05:18:05;;;;;;;24.00;15.65;;;;;;;;;;4988865;28;20237;-84
2021/10/19 05:20:32;;;;;;;20.77;14.98;;;;;;;;;;4982454;28;20238;-81
2021/10/19 05:22:59;;;;;;;20.00;14.88;;;;;;;;;;4992350;28;20254;-83
2021/10/19 05:25:27;;;;;;;22.35;14.57;;;;;;;;;;4981641;28;20290;-83
2021/10/19 05:27:55;;;;;;;23.38;14.88;;;;;;;;;;4988586;28;20288;-82
2021/10/19 05:30:22;;;;;;;22.50;14.27;;;;;;;;;;4992980;28;20221;-82
2021/10/19 05:32:50;;;;;;;22.52;13.63;;;;;;;;;;4992331;28;20380;-83
2021/10/19 05:35:17;;;;;;;22.08;13.80;;;;;;;;;;4991363;28;20249;-79
2021/10/19 05:37:44;;;;;;;21.42;13.82;;;;;;;;;;4991358;28;20301;-79
2021/10/19 05:40:12;;;;;;;23.25;14.23;;;;;;;;;;4984324;28;20294;-82
2021/10/19 05:42:39;;;;;;;23.50;14.50;;;;;;;;;;4980742;28;20297;-85
2021/10/19 05:45:08;;;;;;;21.95;16.48;;;;;;;;;;4971304;28;20525;-80
2021/10/19 05:47:35;;;;;;;20.42;15.05;;;;;;;;;;4983527;28;20229;-80
2021/10/19 05:50:02;;;;;;;18.90;14.50;;;;;;;;;;4990775;28;20368;-80
2021/10/19 05:52:30;;;;;;;22.33;14.75;;;;;;;;;;4983638;28;20297;-80
2021/10/19 05:54:57;;;;;;;22.83;14.32;;;;;;;;;;4977463;28;20262;-80
2021/10/19 05:57:24;;;;;;;21.92;15.60;;;;;;;;;;4981990;28;20614;-80
2021/10/19 05:59:51;;;;;;;24.73;16.00;;;;;;;;;;4989549;28;20757;-80
2021/10/19 06:02:20;;;;;;;23.00;16.17;;;;;;;;;;4988789;28;20880;-79
2021/10/19 06:04:47;;;;;;;26.50;17.23;;;;;;;;;;4984376;28;20285;-80
2021/10/19 06:07:14;;;;;;;24.20;17.02;;;;;;;;;;4985108;28;20286;-79
2021/10/19 06:09:41;;;;;;;23.73;17.10;;;;;;;;;;4991188;28;20288;-80
2021/10/19 06:12:09;;;;;;;25.70;17.37;;;;;;;;;;4989110;28;20709;-80
2021/10/19 06:14:36;;;;;;;25.03;17.30;;;;;;;;;;4990521;28;20222;-79
2021/10/19 06:17:03;;;;;;;25.17;17.87;;;;;;;;;;4981422;28;20369;-79
2021/10/19 06:19:32;;;;;;;29.85;19.48;;;;;;;;;;4986813;28;20288;-79
2021/10/19 06:21:59;;;;;;;29.67;18.33;;;;;;;;;;4971216;28;20578;-80
2021/10/19 06:24:27;;;;;;;28.83;18.50;;;;;;;;;;4983240;28;20556;-79
2021/10/19 06:26:54;;;;;;;28.73;18.63;;;;;;;;;;4979860;28;20293;-80
2021/10/19 06:29:21;;;;;;;29.37;18.90;;;;;;;;;;4977859;28;20225;-79
2021/10/19 06:31:48;;;;;;;28.20;19.23;;;;;;;;;;4972932;28;20237;-80
2021/10/19 06:34:16;;;;;;;26.88;18.05;;;;;;;;;;4989702;28;20671;-79
2021/10/19 06:36:44;;;;;;;25.23;18.33;;;;;;;;;;4984969;28;20229;-79
2021/10/19 06:39:13;;;;;;;28.30;18.47;;;;;;;;;;4981833;28;20257;-78
2021/10/19 06:41:40;;;;;;;27.03;18.73;;;;;;;;;;4989970;28;20245;-79
2021/10/19 06:44:07;;;;;;;29.63;18.83;;;;;;;;;;4974891;28;20301;-79
2021/10/19 06:46:34;;;;;;;29.37;19.03;;;;;;;;;;4970951;28;20290;-79
2021/10/19 06:49:01;;;;;;;31.63;19.43;;;;;;;;;;4984825;28;20632;-79
2021/10/19 06:51:28;;;;;;;26.70;19.30;;;;;;;;;;4990507;28;20233;-79
2021/10/19 06:53:57;;;;;;;35.73;20.03;;;;;;;;;;4989814;28;20238;-80
2021/10/19 06:56:24;;;;;;;28.70;19.17;;;;;;;;;;4989948;28;20308;-79
2021/10/19 06:58:51;;;;;;;30.63;18.67;;;;;;;;;;4989751;28;20297;-79
2021/10/19 07:01:19;;;;;;;30.17;18.25;;;;;;;;;;4989671;28;20288;-79
2021/10/19 07:03:47;;;;;;;27.37;19.17;;;;;;;;;;4979359;28;20275;-79
2021/10/19 07:06:14;;;;;;;30.87;18.90;;;;;;;;;;4989335;28;20230;-79
2021/10/19 07:08:41;;;;;;;27.03;18.37;;;;;;;;;;4990661;28;20301;-79
2021/10/19 07:11:10;;;;;;;29.03;19.40;;;;;;;;;;4980676;28;20310;-79
2021/10/19 07:13:37;;;;;;;26.90;18.73;;;;;;;;;;4989643;28;20662;-79
2021/10/19 07:16:04;;;;;;;25.07;18.43;;;;;;;;;;4989675;28;20685;-80
2021/10/19 07:18:32;;;;;;;24.83;18.40;;;;;;;;;;4989665;28;20288;-80
2021/10/19 07:20:59;;;;;;;27.30;18.20;;;;;;;;;;4989387;28;20284;-80
2021/10/19 07:23:26;;;;;;;25.93;18.43;;;;;;;;;;4990093;28;20233;-80
2021/10/19 07:25:53;;;;;;;25.77;18.60;;;;;;;;;;4989761;28;20288;-80
2021/10/19 07:28:22;;;;;;;26.08;19.00;;;;;;;;;;4976890;28;20286;-79
2021/10/19 07:30:49;;;;;;;25.63;18.02;;;;;;;;;;4971139;28;20238;-79
2021/10/19 07:33:16;;;;;;;28.73;18.63;;;;;;;;;;4970103;28;20329;-79
2021/10/19 07:35:43;;;;;;;24.10;18.55;;;;;;;;;;4988612;28;20747;-79
2021/10/19 07:38:12;;;;;;;25.10;18.15;;;;;;;;;;4989844;28;20201;-79
2021/10/19 07:40:39;;;;;;;25.98;18.42;;;;;;;;;;4989685;28;20245;-78
2021/10/19 07:43:07;;;;;;;23.38;17.95;;;;;;;;;;4988797;28;20284;-79
2021/10/19 07:45:36;;;;;;;23.10;17.58;;;;;;;;;;4989253;28;20230;-79
2021/10/19 07:48:03;;;;;;;25.80;17.95;;;;;;;;;;4989812;28;20288;-79
2021/10/19 07:50:31;;;;;;;24.42;17.98;;;;;;;;;;4989480;28;20289;-79
2021/10/19 07:52:58;;;;;;;22.08;17.40;;;;;;;;;;4988017;28;20293;-79
2021/10/19 07:55:27;;;;;;;24.75;17.67;;;;;;;;;;4989515;28;20317;-79
2021/10/19 07:57:55;;;;;;;23.25;17.45;;;;;;;;;;4989068;28;20229;-80
2021/10/19 08:00:23;;;;;;;26.33;17.67;;;;;;;;;;4984856;28;20747;-79
2021/10/19 08:02:52;;;;;;;20.67;16.67;;;;;;;;;;4987848;28;20615;-79
2021/10/19 08:05:20;;;;;;;21.98;16.75;;;;;;;;;;4985855;28;20733;-78
2021/10/19 08:07:48;;;;;;;21.00;16.50;;;;;;;;;;4979502;28;20296;-79
2021/10/19 08:10:16;;;;;;;21.08;15.68;;;;;;;;;;4985576;28;20244;-79
2021/10/19 08:12:43;;;;;;;17.88;14.82;;;;;;;;;;4989338;28;20280;-78
2021/10/19 08:15:11;;;;;;;16.67;14.18;;;;;;;;;;4989479;28;20285;-78
2021/10/19 08:17:39;;;;;;;18.20;13.60;;;;;;;;;;4989314;28;20292;-79
2021/10/19 08:20:09;;;;;;;19.55;15.02;;;;;;;;;;4975465;28;20661;-79
2021/10/19 08:22:36;;;;;;;22.00;15.73;;;;;;;;;;4974927;28;20285;-79
2021/10/19 08:25:06;;;;;;;21.95;16.33;;;;;;;;;;4991775;28;20285;-78
2021/10/19 08:27:33;;;;;;;19.42;15.95;;;;;;;;;;4992718;28;20202;-79
2021/10/19 08:30:00;;;;;;;21.40;15.95;;;;;;;;;;4992503;28;20646;-78
2021/10/19 08:32:27;;;;;;;18.92;14.75;;;;;;;;;;4991808;28;20284;-79
2021/10/19 08:34:55;;;;;;;17.17;13.55;;;;;;;;;;4989228;28;20650;-79
2021/10/19 08:37:23;;;;;;;14.35;12.02;;;;;;;;;;4980188;28;20661;-79
2021/10/19 08:39:50;;;;;;;14.35;11.80;;;;;;;;;;4991952;28;20202;-79
2021/10/19 08:42:18;;;;;;;12.30;11.10;;;;;;;;;;4976780;28;20234;-79
2021/10/19 08:44:45;;;;;;;11.77;10.43;;;;;;;;;;4986022;28;20372;-79
2021/10/19 08:47:13;;;;;;;11.38;9.93;;;;;;;;;;4992156;28;20197;-79
2021/10/19 08:49:40;;;;;;;11.98;10.13;;;;;;;;;;4985030;28;20293;-79
2021/10/19 08:52:07;;;;;;;11.45;10.25;;;;;;;;;;4987915;28;20298;-79
2021/10/19 08:54:36;;;;;;;12.13;10.82;;;;;;;;;;4977687;28;20249;-79
2021/10/19 08:57:03;;;;;;;11.88;10.15;;;;;;;;;;4988370;28;20304;-78
2021/10/19 08:59:31;;;;;;;10.93;9.82;;;;;;;;;;4972294;28;20289;-79
2021/10/19 09:01:58;;;;;;;11.60;10.27;;;;;;;;;;4975132;28;20310;-79
2021/10/19 09:04:27;;;;;;;12.27;10.18;;;;;;;;;;4991452;28;20206;-79
2021/10/19 09:06:55;;;;;;;12.63;10.18;;;;;;;;;;4990602;28;20222;-79
2021/10/19 09:09:24;;;;;;;11.55;10.32;;;;;;;;;;4981747;28;20633;-79
2021/10/19 09:11:54;;;;;;;11.30;10.07;;;;;;;;;;4975379;28;20228;-79
2021/10/19 09:14:22;;;;;;;15.90;10.73;;;;;;;;;;4972646;28;20230;-79
2021/10/19 09:16:50;;;;;;;12.77;10.93;;;;;;;;;;4977897;28;20309;-79
2021/10/19 09:19:18;;;;;;;11.68;10.52;;;;;;;;;;4966670;28;20289;-79
2021/10/19 09:21:46;;;;;;;10.93;9.82;;;;;;;;;;4978607;28;20778;-79
2021/10/19 09:24:20;;;;;;;11.07;9.65;;;;;;;;;;4991474;28;20234;-79
2021/10/19 09:26:53;;;;;;;10.40;9.40;;;;;;;;;;4990934;28;20279;-79
2021/10/19 09:29:20;;;;;;;11.73;10.35;;;;;;;;;;4978832;28;20650;-78
2021/10/19 09:31:50;;;;;;;10.48;9.30;;;;;;;;;;4972075;28;20230;-78
2021/10/19 09:34:17;;;;;;;12.52;10.60;;;;;;;;;;4986600;28;20311;-79
2021/10/19 09:36:45;;;;;;;11.93;10.18;;;;;;;;;;4986926;28;20313;-80
2021/10/19 09:39:12;;;;;;;13.02;10.10;;;;;;;;;;4971561;28;20293;-79
2021/10/19 09:41:42;;;;;;;11.27;10.15;;;;;;;;;;4974677;28;20293;-79
2021/10/19 09:44:16;;;;;;;11.02;9.93;;;;;;;;;;4978979;28;20244;-78
2021/10/19 09:46:43;;;;;;;11.63;10.43;;;;;;;;;;4978384;28;20737;-79
2021/10/19 09:49:12;;;;;;;10.68;9.68;;;;;;;;;;4991070;28;20289;-79
2021/10/19 09:51:40;;;;;;;12.02;10.10;;;;;;;;;;4979246;28;20247;-79
2021/10/19 09:54:09;;;;;;;11.15;9.10;;;;;;;;;;4971945;28;20290;-80
2021/10/19 09:56:38;;;;;;;10.02;9.07;;;;;;;;;;4973592;28;20241;-81
2021/10/19 09:59:05;;;;;;;11.32;9.10;;;;;;;;;;4971569;28;20206;-80
2021/10/19 10:01:35;;;;;;;12.73;9.43;;;;;;;;;;4982429;28;20242;-79
2021/10/19 10:04:02;;;;;;;11.88;9.73;;;;;;;;;;4979795;28;20234;-81
2021/10/19 10:06:29;;;;;;;10.98;9.45;;;;;;;;;;4974895;28;20222;-81
2021/10/19 10:08:57;;;;;;;12.65;10.40;;;;;;;;;;4971036;28;20302;-81
2021/10/19 10:11:25;;;;;;;13.60;11.18;;;;;;;;;;4972628;28;20237;-81
2021/10/19 10:13:59;;;;;;;12.77;11.27;;;;;;;;;;4973443;28;20686;-81
2021/10/19 10:16:26;;;;;;;15.27;12.50;;;;;;;;;;4971190;28;20788;-81
2021/10/19 10:18:55;;;;;;;10.85;9.38;;;;;;;;;;4981676;28;20238;-81
2021/10/19 10:21:24;;;;;;;9.63;8.73;;;;;;;;;;4990477;28;20290;-81
2021/10/19 10:24:00;;;;;;;10.27;9.27;;;;;;;;;;4990742;28;20705;-80
2021/10/19 10:26:29;;;;;;;9.10;8.15;;;;;;;;;;4989826;28;20554;-81
2021/10/19 10:29:06;;;;;;;9.85;8.60;;;;;;;;;;4977568;28;20296;-81
2021/10/19 10:31:34;;;;;;;9.90;8.90;;;;;;;;;;4990619;28;20237;-80
2021/10/19 10:34:14;;;;;;;9.32;8.43;;;;;;;;;;4989448;28;20264;-80
2021/10/19 10:36:45;;;;;;;10.88;9.27;;;;;;;;;;4978381;28;20237;-81
2021/10/19 10:39:13;;;;;;;10.15;9.13;;;;;;;;;;4980034;28;20202;-80
2021/10/19 10:41:41;;;;;;;10.98;8.40;;;;;;;;;;4986157;28;20249;-80
2021/10/19 10:44:09;;;;;;;8.85;8.05;;;;;;;;;;4979227;28;20281;-79
2021/10/19 10:46:37;;;;;;;9.05;8.05;;;;;;;;;;4979846;28;20233;-80
2021/10/19 10:49:11;;;;;;;10.13;8.77;;;;;;;;;;4971107;28;20281;-81
2021/10/19 10:51:38;;;;;;;9.15;8.32;;;;;;;;;;4970731;28;20279;-80
2021/10/19 10:54:06;;;;;;;10.40;8.18;;;;;;;;;;4970945;28;20234;-81
2021/10/19 10:56:41;;;;;;;9.35;8.45;;;;;;;;;;4970636;28;20266;-81
2021/10/19 10:59:09;;;;;;;9.30;8.40;;;;;;;;;;4971347;28;20256;-80
2021/10/19 11:01:36;;;;;;;9.23;8.32;;;;;;;;;;4979824;28;20714;-80
2021/10/19 11:04:05;;;;;;;9.05;8.15;;;;;;;;;;4987493;28;20689;-80
2021/10/19 11:06:33;;;;;;;8.82;7.95;;;;;;;;;;4974948;28;20198;-80
2021/10/19 11:09:02;;;;;;;8.95;8.05;;;;;;;;;;4989968;28;20231;-81
2021/10/19 11:11:35;;;;;;;9.32;7.97;;;;;;;;;;5001726;28;20271;-80
2021/10/19 11:14:04;;;;;;;8.68;7.75;;;;;;;;;;4970967;28;20604;-80
2021/10/19 11:16:32;;;;;;;8.75;7.88;;;;;;;;;;4978236;28;20226;-80
2021/10/19 11:19:00;;;;;;;9.77;7.97;;;;;;;;;;4971193;28;20198;-80
2021/10/19 11:21:27;;;;;;;11.15;8.05;;;;;;;;;;4988361;28;20239;-80
2021/10/19 11:23:56;;;;;;;8.25;7.45;;;;;;;;;;4990127;28;20233;-80
2021/10/19 11:26:23;;;;;;;8.68;7.85;;;;;;;;;;4989702;28;20248;-80
2021/10/19 11:28:51;;;;;;;8.75;7.90;;;;;;;;;;4989887;28;20370;-81
2021/10/19 11:31:18;;;;;;;9.57;7.70;;;;;;;;;;4987870;28;20198;-81
2021/10/19 11:33:46;;;;;;;9.63;8.30;;;;;;;;;;4986335;28;20682;-80
2021/10/19 11:36:14;;;;;;;9.00;7.68;;;;;;;;;;4989319;28;20737;-79
2021/10/19 11:38:42;;;;;;;9.60;8.25;;;;;;;;;;4973220;28;20237;-80
2021/10/19 11:41:12;;;;;;;9.63;8.10;;;;;;;;;;4984337;28;20657;-80
2021/10/19 11:43:40;;;;;;;9.43;8.40;;;;;;;;;;4970023;28;20213;-80
2021/10/19 11:46:08;;;;;;;8.77;7.88;;;;;;;;;;4988126;28;20248;-80
2021/10/19 11:48:36;;;;;;;8.55;7.65;;;;;;;;;;4988533;28;20206;-80
2021/10/19 11:51:07;;;;;;;8.80;7.90;;;;;;;;;;4988639;28;20301;-80
2021/10/19 11:53:35;;;;;;;9.15;7.68;;;;;;;;;;4987872;28;20710;-80
2021/10/19 11:56:04;;;;;;;8.77;7.18;;;;;;;;;;4989729;28;20241;-80
2021/10/19 11:58:33;;;;;;;8.18;7.47;;;;;;;;;;4991228;28;20228;-80
2021/10/19 12:01:00;;;;;;;8.10;7.30;;;;;;;;;;4992645;28;20226;-80
2021/10/19 12:03:31;;;;;;;9.88;7.00;;;;;;;;;;4984410;28;20254;-81
2021/10/19 12:05:59;;;;;;;9.68;7.30;;;;;;;;;;4973755;28;20202;-80
2021/10/19 12:08:30;;;;;;;8.20;7.22;;;;;;;;;;4973509;28;20635;-80
2021/10/19 12:10:57;;;;;;;9.68;7.72;;;;;;;;;;4975506;28;20214;-80
2021/10/19 12:13:28;;;;;;;8.38;7.53;;;;;;;;;;4986196;28;20206;-80
2021/10/19 12:15:57;;;;;;;7.43;6.80;;;;;;;;;;4982059;28;20568;-80
2021/10/19 12:18:24;;;;;;;8.05;7.25;;;;;;;;;;4988308;28;20246;-80
2021/10/19 12:20:52;;;;;;;8.43;7.20;;;;;;;;;;4992452;28;20290;-80
2021/10/19 12:23:19;;;;;;;8.27;6.65;;;;;;;;;;4992537;28;20249;-80
2021/10/19 12:25:47;;;;;;;7.65;6.43;;;;;;;;;;4992083;28;20756;-79
2021/10/19 12:28:18;;;;;;;8.00;6.85;;;;;;;;;;4992416;28;20665;-79
2021/10/19 12:30:45;;;;;;;7.22;6.60;;;;;;;;;;4992218;28;20603;-79
2021/10/19 12:33:19;;;;;;;8.02;6.90;;;;;;;;;;4991474;28;20316;-79
2021/10/19 12:35:53;;;;;;;7.88;6.63;;;;;;;;;;4991594;28;20229;-79
2021/10/19 12:38:21;;;;;;;7.47;6.78;;;;;;;;;;4978481;28;20772;-79
2021/10/19 12:40:49;;;;;;;7.45;6.70;;;;;;;;;;4991882;28;20285;-79
2021/10/19 12:43:16;;;;;;;8.25;7.40;;;;;;;;;;4992165;28;20600;-79
2021/10/19 12:45:44;;;;;;;7.13;6.43;;;;;;;;;;4992048;28;20293;-80
2021/10/19 12:48:11;;;;;;;8.82;6.95;;;;;;;;;;4977590;28;20238;-79
2021/10/19 12:50:39;;;;;;;7.05;6.10;;;;;;;;;;4984040;28;20233;-79
2021/10/19 12:53:06;;;;;;;7.32;6.72;;;;;;;;;;4991015;28;20244;-79
2021/10/19 12:55:34;;;;;;;7.97;6.43;;;;;;;;;;4981929;28;20292;-80
2021/10/19 12:58:01;;;;;;;8.43;6.38;;;;;;;;;;4992125;28;20313;-79
2021/10/19 13:00:28;;;;;;;7.80;6.97;;;;;;;;;;4991485;28;20296;-80
2021/10/19 13:02:55;;;;;;;7.45;6.75;;;;;;;;;;4988485;28;20309;-79
2021/10/19 13:05:22;;;;;;;8.63;6.88;;;;;;;;;;4981987;28;20305;-79
2021/10/19 13:07:51;;;;;;;7.88;7.05;;;;;;;;;;4983359;28;20226;-80
2021/10/19 13:10:18;;;;;;;8.27;6.97;;;;;;;;;;4975870;28;20282;-80
2021/10/19 13:12:45;;;;;;;8.32;7.50;;;;;;;;;;4979510;28;20285;-79
2021/10/19 13:15:12;;;;;;;8.00;7.28;;;;;;;;;;4972041;28;20265;-80
2021/10/19 13:17:40;;;;;;;8.13;7.00;;;;;;;;;;4972708;28;20321;-80
2021/10/19 13:20:07;;;;;;;8.10;7.07;;;;;;;;;;4975329;28;20251;-79
2021/10/19 13:22:35;;;;;;;9.10;7.00;;;;;;;;;;4977470;28;20242;-80
2021/10/19 13:25:03;;;;;;;7.80;7.03;;;;;;;;;;4974993;28;20286;-79
2021/10/19 13:27:30;;;;;;;9.27;7.38;;;;;;;;;;4991649;28;20327;-80
2021/10/19 13:29:57;;;;;;;8.98;8.07;;;;;;;;;;4984263;28;20329;-80
2021/10/19 13:32:25;;;;;;;9.75;7.40;;;;;;;;;;4991085;28;20237;-80
2021/10/19 13:34:52;;;;;;;8.27;7.47;;;;;;;;;;4981841;28;20680;-79
2021/10/19 13:37:19;;;;;;;8.90;7.63;;;;;;;;;;4971930;28;20645;-80
2021/10/19 13:39:46;;;;;;;9.68;8.77;;;;;;;;;;4972570;28;20230;-80
2021/10/19 13:42:16;;;;;;;8.43;7.63;;;;;;;;;;4971999;28;20234;-79
2021/10/19 13:44:43;;;;;;;9.05;8.15;;;;;;;;;;4978807;28;20248;-79
2021/10/19 13:47:11;;;;;;;9.20;8.30;;;;;;;;;;4991323;28;20630;-80
2021/10/19 13:49:54;;;;;;;9.98;9.00;;;;;;;;;;4991805;28;20632;-80
2021/10/19 13:52:21;;;;;;;10.05;8.90;;;;;;;;;;4990944;28;20285;-79
2021/10/19 13:54:48;;;;;;;14.65;10.13;;;;;;;;;;4991529;28;20248;-79
2021/10/19 13:57:17;;;;;;;11.35;10.23;;;;;;;;;;4989309;28;20310;-79
2021/10/19 13:59:44;;;;;;;11.52;9.55;;;;;;;;;;4979244;28;20198;-79
2021/10/19 14:02:11;;;;;;;11.93;10.10;;;;;;;;;;4989154;28;20328;-80
2021/10/19 14:04:39;;;;;;;11.20;9.77;;;;;;;;;;4971562;28;20238;-79
2021/10/19 14:07:07;;;;;;;10.80;9.80;;;;;;;;;;4980836;28;20244;-79
2021/10/19 14:09:34;;;;;;;14.65;10.48;;;;;;;;;;4984816;28;20669;-79
2021/10/19 14:12:02;;;;;;;12.48;11.18;;;;;;;;;;4972829;28;20229;-80
2021/10/19 14:14:30;;;;;;;12.60;10.95;;;;;;;;;;4973770;28;20740;-80
2021/10/19 14:16:58;;;;;;;12.00;10.63;;;;;;;;;;4990401;28;20243;-79
2021/10/19 14:19:25;;;;;;;16.70;11.65;;;;;;;;;;4980584;28;20204;-79
2021/10/19 14:21:52;;;;;;;11.57;10.45;;;;;;;;;;4989768;28;20292;-80
2021/10/19 14:24:19;;;;;;;13.07;10.95;;;;;;;;;;4990631;28;20233;-80
2021/10/19 14:26:47;;;;;;;14.98;11.60;;;;;;;;;;4991150;28;20285;-79
2021/10/19 14:29:15;;;;;;;14.45;12.20;;;;;;;;;;4989678;28;20201;-80
2021/10/19 14:31:45;;;;;;;13.77;12.27;;;;;;;;;;4989897;28;20202;-79